Time;durP1;ratioP1;P1;durP2;ratioP2;P2;SDS_P1;SDS_P2;PMS_P1;PMS_P2;Temp;Humidity;BMP_temperature;BMP_pressure;BME280_temperature;BME280_humidity;BME280_pressure;Samples;Min_cycle;Max_cycle;Signal;HPM_P1;HPM_P2
2023/08/19 00:01:36;;;;;;;28.75;21.70;;;;;;;22.67;96.95;101148.38;5021218;28;20511;-68
2023/08/19 00:04:01;;;;;;;28.40;21.67;;;;;;;22.68;96.93;101147.31;5022167;28;20108;-68
2023/08/19 00:06:34;;;;;;;26.38;22.13;;;;;;;22.67;97.11;101142.97;5023145;28;20030;-68
2023/08/19 00:09:01;;;;;;;24.75;21.42;;;;;;;22.66;96.85;101142.13;5023581;28;20022;-68
2023/08/19 00:11:27;;;;;;;24.88;21.63;;;;;;;22.65;96.38;101139.69;5022729;28;20441;-68
2023/08/19 00:13:52;;;;;;;23.23;20.60;;;;;;;22.65;96.87;101136.97;5025733;28;20514;-68
2023/08/19 00:16:17;;;;;;;24.98;21.02;;;;;;;22.65;96.88;101132.38;5022645;28;20033;-68
2023/08/19 00:18:43;;;;;;;24.27;20.88;;;;;;;22.62;97.12;101119.31;5018740;28;20029;-68
2023/08/19 00:21:08;;;;;;;26.65;21.08;;;;;;;22.64;96.68;101130.72;5026773;28;20035;-68
2023/08/19 00:23:33;;;;;;;23.45;20.98;;;;;;;22.63;97.03;101136.38;5027063;28;20037;-68
2023/08/19 00:25:59;;;;;;;25.00;21.20;;;;;;;22.65;96.63;101134.25;5025297;28;20083;-68
2023/08/19 00:28:25;;;;;;;24.02;21.40;;;;;;;22.64;97.12;101138.03;5029509;28;20156;-68
2023/08/19 00:30:50;;;;;;;28.95;21.73;;;;;;;22.64;96.91;101130.72;5028974;28;20461;-68
2023/08/19 00:33:16;;;;;;;25.17;20.60;;;;;;;22.62;97.24;101138.28;5018161;28;20105;-68
2023/08/19 00:35:42;;;;;;;26.55;21.92;;;;;;;22.63;97.14;101144.50;5024995;28;20048;-68
2023/08/19 00:38:07;;;;;;;29.65;21.98;;;;;;;22.63;97.18;101144.50;5021221;28;20105;-68
2023/08/19 00:40:32;;;;;;;25.23;21.85;;;;;;;22.60;97.20;101143.13;5023651;28;20034;-68
2023/08/19 00:42:58;;;;;;;29.10;23.63;;;;;;;22.60;97.24;101147.72;5027476;28;20013;-68
2023/08/19 00:45:23;;;;;;;26.48;22.63;;;;;;;22.58;97.36;101139.84;5018109;28;20033;-68
2023/08/19 00:47:49;;;;;;;29.40;23.90;;;;;;;22.56;97.43;101137.38;5017317;28;20022;-68
2023/08/19 00:50:15;;;;;;;29.35;23.65;;;;;;;22.54;97.73;101133.22;5023407;28;20022;-68
2023/08/19 00:52:41;;;;;;;28.80;23.02;;;;;;;22.53;97.49;101137.00;5023501;28;20021;-69
2023/08/19 00:55:06;;;;;;;26.73;23.77;;;;;;;22.50;97.50;101138.31;5024525;28;20041;-68
2023/08/19 00:57:35;;;;;;;33.50;23.98;;;;;;;22.48;97.88;101131.50;5017278;28;20037;-68
2023/08/19 01:00:02;;;;;;;27.25;24.35;;;;;;;22.45;97.99;101130.09;5024544;28;20390;-68
2023/08/19 01:02:28;;;;;;;30.38;24.08;;;;;;;22.43;97.94;101129.53;5018089;28;20033;-68
2023/08/19 01:04:53;;;;;;;34.53;24.88;;;;;;;22.44;98.05;101130.34;5021440;28;20025;-68
2023/08/19 01:07:28;;;;;;;30.35;25.85;;;;;;;22.40;98.18;101135.44;5019218;28;20029;-68
2023/08/19 01:10:10;;;;;;;30.83;26.27;;;;;;;22.37;98.21;101129.69;5028910;28;20028;-68
2023/08/19 01:12:52;;;;;;;28.90;25.10;;;;;;;22.39;98.60;101117.53;5011958;28;20037;-68
2023/08/19 01:15:25;;;;;;;30.13;25.40;;;;;;;22.36;98.62;101128.84;5020596;28;20028;-68
2023/08/19 01:17:52;;;;;;;29.80;25.23;;;;;;;22.36;98.51;101125.31;5013318;28;20593;-68
2023/08/19 01:20:19;;;;;;;30.83;25.40;;;;;;;22.34;98.47;101114.75;5021336;28;20483;-68
2023/08/19 01:23:00;;;;;;;31.30;25.92;;;;;;;22.35;99.01;101112.88;5023556;28;20040;-68
2023/08/19 01:25:26;;;;;;;30.77;24.85;;;;;;;22.35;98.85;101113.69;5020861;28;20034;-68
2023/08/19 01:27:51;;;;;;;31.33;25.02;;;;;;;22.37;98.58;101118.84;5033955;28;20100;-68
2023/08/19 01:30:17;;;;;;;31.02;25.00;;;;;;;22.33;99.08;101106.88;5027322;28;20021;-68
2023/08/19 01:32:43;;;;;;;28.50;25.08;;;;;;;22.33;98.91;101113.09;5023499;28;20037;-68
2023/08/19 01:35:11;;;;;;;28.35;25.35;;;;;;;22.33;98.75;101107.69;5022048;28;20029;-68
2023/08/19 01:37:43;;;;;;;31.10;26.20;;;;;;;22.33;99.34;101107.69;5021783;28;20029;-68
2023/08/19 01:40:13;;;;;;;28.65;24.70;;;;;;;22.35;99.14;101096.63;5024235;28;20558;-68
2023/08/19 01:42:39;;;;;;;27.92;24.90;;;;;;;22.35;98.89;101093.91;5024648;28;20025;-68
2023/08/19 01:45:06;;;;;;;27.77;24.08;;;;;;;22.32;99.20;101081.69;5026465;28;20645;-68
2023/08/19 01:47:31;;;;;;;30.85;25.05;;;;;;;22.38;98.92;101086.13;5023449;28;20036;-68
2023/08/19 01:49:57;;;;;;;27.63;24.58;;;;;;;22.37;99.18;101083.66;5028138;28;20025;-69
2023/08/19 01:52:22;;;;;;;30.42;23.95;;;;;;;22.37;98.79;101089.91;5026636;28;20465;-68
2023/08/19 01:54:48;;;;;;;32.67;24.30;;;;;;;22.39;99.04;101086.97;5022111;28;20025;-68
2023/08/19 01:57:13;;;;;;;29.33;24.13;;;;;;;22.39;98.86;101082.38;5023848;28;20394;-68
2023/08/19 01:59:38;;;;;;;27.27;22.52;;;;;;;22.41;98.93;101096.47;5020050;28;20083;-68
2023/08/19 02:02:04;;;;;;;27.88;23.75;;;;;;;22.42;98.38;101090.00;5014200;28;20391;-68
2023/08/19 02:04:29;;;;;;;29.63;23.90;;;;;;;22.43;98.53;101086.22;5024542;28;20026;-68
2023/08/19 02:06:55;;;;;;;27.48;23.70;;;;;;;22.45;98.46;101083.28;5024320;28;20031;-69
2023/08/19 02:09:20;;;;;;;30.55;23.52;;;;;;;22.42;98.37;101076.47;5024328;28;20029;-68
2023/08/19 02:11:45;;;;;;;28.45;23.65;;;;;;;22.46;98.24;101085.72;5026100;28;20118;-68
2023/08/19 02:14:11;;;;;;;27.77;24.75;;;;;;;22.44;98.31;101081.63;5021541;28;20022;-69
2023/08/19 02:16:36;;;;;;;28.95;24.33;;;;;;;22.44;98.12;101077.03;5025233;28;20103;-68
2023/08/19 02:19:01;;;;;;;27.08;23.17;;;;;;;22.45;98.13;101084.09;5026635;28;20118;-68
2023/08/19 02:21:27;;;;;;;29.20;23.33;;;;;;;22.47;98.24;101081.97;5023921;28;20033;-68
2023/08/19 02:23:53;;;;;;;29.50;22.73;;;;;;;22.47;98.01;101076.53;5018706;28;20030;-68
2023/08/19 02:26:19;;;;;;;27.83;23.05;;;;;;;22.47;98.07;101075.72;5022502;28;20486;-69
2023/08/19 02:28:44;;;;;;;28.65;23.48;;;;;;;22.46;97.90;101071.38;5017858;28;20041;-69
2023/08/19 02:31:09;;;;;;;28.92;23.30;;;;;;;22.47;97.65;101064.91;5018290;28;20013;-68
2023/08/19 02:33:36;;;;;;;28.02;23.73;;;;;;;22.45;97.70;101061.63;5024348;28;20442;-68
2023/08/19 02:36:02;;;;;;;26.40;23.42;;;;;;;22.46;97.85;101061.38;5020053;28;20091;-68
2023/08/19 02:38:27;;;;;;;28.80;23.05;;;;;;;22.45;97.95;101057.03;5014204;28;20030;-68
2023/08/19 02:40:52;;;;;;;27.45;22.77;;;;;;;22.46;97.77;101057.84;5020573;28;20025;-68
2023/08/19 02:43:18;;;;;;;32.00;22.73;;;;;;;22.47;97.49;101059.50;5027180;28;20491;-69
2023/08/19 02:45:43;;;;;;;27.88;22.30;;;;;;;22.46;97.39;101057.84;5018356;28;20101;-68
2023/08/19 02:48:09;;;;;;;24.67;20.60;;;;;;;22.47;97.31;101052.19;5012125;28;20025;-69
2023/08/19 02:50:34;;;;;;;26.15;21.98;;;;;;;22.47;97.38;101044.06;5028134;28;20394;-68
2023/08/19 02:53:00;;;;;;;24.67;20.92;;;;;;;22.47;97.30;101044.06;5025393;28;20029;-69
2023/08/19 02:55:25;;;;;;;23.08;20.52;;;;;;;22.48;97.22;101040.28;5021244;28;20033;-68
2023/08/19 02:57:50;;;;;;;26.05;20.90;;;;;;;22.50;97.27;101042.75;5020205;28;20033;-68
2023/08/19 03:00:16;;;;;;;25.88;20.52;;;;;;;22.50;96.87;101049.00;5024582;28;20549;-69
2023/08/19 03:02:45;;;;;;;26.00;20.65;;;;;;;22.49;96.99;101055.47;5020346;28;20025;-68
2023/08/19 03:05:11;;;;;;;24.75;19.70;;;;;;;22.49;96.65;101051.94;5016145;28;20191;-68
2023/08/19 03:07:36;;;;;;;25.00;19.88;;;;;;;22.52;96.88;101054.97;5017829;28;20504;-68
2023/08/19 03:10:02;;;;;;;25.95;20.15;;;;;;;22.52;96.81;101043.34;5019734;28;20109;-68
2023/08/19 03:12:27;;;;;;;24.15;19.83;;;;;;;22.52;96.55;101044.16;5018359;28;20030;-68
2023/08/19 03:14:53;;;;;;;22.30;19.95;;;;;;;22.52;96.36;101046.84;5020162;28;20033;-68
2023/08/19 03:17:19;;;;;;;24.20;20.05;;;;;;;22.52;96.60;101046.84;5021460;28;20080;-68
2023/08/19 03:19:44;;;;;;;22.65;20.13;;;;;;;22.51;96.27;101044.41;5019698;28;20029;-69
2023/08/19 03:22:10;;;;;;;26.42;20.20;;;;;;;22.51;96.19;101041.69;5020471;28;20041;-68
2023/08/19 03:24:35;;;;;;;23.25;20.35;;;;;;;22.49;96.57;101039.22;5013254;28;20360;-68
2023/08/19 03:27:00;;;;;;;23.50;20.08;;;;;;;22.50;96.62;101034.63;5016126;28;20033;-69
2023/08/19 03:29:25;;;;;;;23.73;19.90;;;;;;;22.50;96.32;101031.94;5019113;28;20028;-69
2023/08/19 03:31:51;;;;;;;23.60;19.70;;;;;;;22.48;96.32;101034.88;5024744;28;20419;-68
2023/08/19 03:34:16;;;;;;;23.95;20.13;;;;;;;22.47;96.14;101037.84;5022201;28;20557;-68
2023/08/19 03:36:41;;;;;;;23.75;20.10;;;;;;;22.43;96.16;101037.50;5025528;28;20522;-68
2023/08/19 03:39:07;;;;;;;21.55;19.23;;;;;;;22.44;96.18;101039.16;5027315;28;20592;-68
2023/08/19 03:41:32;;;;;;;23.63;19.48;;;;;;;22.43;96.11;101040.22;5019619;28;20061;-68
2023/08/19 03:43:57;;;;;;;23.20;19.83;;;;;;;22.43;96.20;101040.22;5027397;28;20018;-68
2023/08/19 03:46:22;;;;;;;22.15;18.65;;;;;;;22.40;96.37;101051.53;5024547;28;20023;-68
2023/08/19 03:48:48;;;;;;;24.02;18.98;;;;;;;22.41;96.48;101052.34;5023316;28;20021;-68
2023/08/19 03:51:13;;;;;;;22.35;19.13;;;;;;;22.40;96.08;101045.28;5029774;28;20022;-69
2023/08/19 03:53:38;;;;;;;24.48;18.88;;;;;;;22.41;96.08;101053.16;5013092;28;20038;-68
2023/08/19 03:56:04;;;;;;;20.88;18.00;;;;;;;22.40;96.48;101040.69;5028184;28;20036;-68
2023/08/19 03:58:29;;;;;;;22.65;18.73;;;;;;;22.40;96.32;101034.47;5018493;28;20040;-68
2023/08/19 04:01:03;;;;;;;22.70;18.38;;;;;;;22.38;96.47;101040.13;5024557;28;20173;-69
2023/08/19 04:03:28;;;;;;;23.63;18.42;;;;;;;22.35;96.48;101040.63;5027735;28;20025;-68
2023/08/19 04:05:54;;;;;;;21.20;18.27;;;;;;;22.38;96.50;101040.13;5020662;28;20038;-68
2023/08/19 04:08:19;;;;;;;21.92;18.52;;;;;;;22.40;96.38;101048.00;5022108;28;20051;-68
2023/08/19 04:10:44;;;;;;;20.67;17.83;;;;;;;22.38;96.04;101045.53;5023876;28;20044;-68
2023/08/19 04:13:09;;;;;;;22.77;17.77;;;;;;;22.39;96.23;101052.59;5026858;28;20029;-68
2023/08/19 04:15:35;;;;;;;21.75;18.20;;;;;;;22.39;96.23;101052.59;5028047;28;20568;-68
2023/08/19 04:18:00;;;;;;;23.02;17.75;;;;;;;22.38;96.14;101050.97;5024183;28;20044;-68
2023/08/19 04:20:25;;;;;;;21.45;17.10;;;;;;;22.36;95.90;101044.97;5023609;28;20017;-68
2023/08/19 04:22:50;;;;;;;21.63;17.13;;;;;;;22.39;95.86;101040.94;5031131;28;20033;-68
2023/08/19 04:25:17;;;;;;;19.10;16.88;;;;;;;22.38;96.01;101052.84;5023012;28;20075;-68
2023/08/19 04:27:42;;;;;;;19.10;16.15;;;;;;;22.37;96.09;101049.31;5030609;28;20033;-69
2023/08/19 04:30:08;;;;;;;21.55;16.58;;;;;;;22.36;95.77;101053.09;5029177;28;20395;-68
2023/08/19 04:32:33;;;;;;;19.70;16.38;;;;;;;22.37;96.14;101056.63;5030832;28;20502;-68
2023/08/19 04:34:59;;;;;;;23.45;16.02;;;;;;;22.33;95.82;101058.16;5029106;28;20116;-68
2023/08/19 04:37:24;;;;;;;19.98;16.63;;;;;;;22.33;96.16;101061.69;5027811;28;20032;-69
2023/08/19 04:39:50;;;;;;;19.30;16.00;;;;;;;22.34;95.98;101057.09;5025500;28;20086;-68
2023/08/19 04:42:15;;;;;;;19.67;15.95;;;;;;;22.33;96.14;101061.69;5029034;28;20033;-68
2023/08/19 04:44:40;;;;;;;20.58;15.13;;;;;;;22.33;96.23;101069.00;5023751;28;20029;-68
2023/08/19 04:47:06;;;;;;;19.70;15.38;;;;;;;22.33;96.10;101072.50;5027234;28;20614;-69
2023/08/19 04:49:31;;;;;;;21.90;15.15;;;;;;;22.34;95.92;101071.44;5019901;28;20036;-68
2023/08/19 04:51:56;;;;;;;22.92;15.73;;;;;;;22.34;95.83;101066.03;5025074;28;20025;-68
2023/08/19 04:54:21;;;;;;;18.92;15.63;;;;;;;22.35;95.89;101064.97;5029390;28;20530;-68
2023/08/19 04:56:47;;;;;;;17.65;15.50;;;;;;;22.33;96.01;101064.41;5023664;28;20036;-68
2023/08/19 04:59:12;;;;;;;18.58;15.20;;;;;;;22.33;95.72;101056.28;5019644;28;20036;-68
2023/08/19 05:01:37;;;;;;;20.00;15.52;;;;;;;22.33;95.71;101055.47;5028414;28;20037;-68
2023/08/19 05:04:03;;;;;;;18.27;15.20;;;;;;;22.33;95.84;101058.16;5025398;28;20040;-68
2023/08/19 05:06:28;;;;;;;17.90;15.38;;;;;;;22.33;95.68;101059.00;5026468;28;20033;-68
2023/08/19 05:08:53;;;;;;;18.98;15.15;;;;;;;22.33;96.00;101053.56;5021902;28;20088;-68
2023/08/19 05:11:19;;;;;;;18.30;15.02;;;;;;;22.33;95.94;101052.75;5025287;28;20025;-68
2023/08/19 05:13:44;;;;;;;21.02;15.00;;;;;;;22.32;95.53;101051.94;5019614;28;20108;-69
2023/08/19 05:16:10;;;;;;;20.98;15.35;;;;;;;22.33;95.89;101067.09;5024941;28;20021;-68
2023/08/19 05:18:35;;;;;;;16.08;13.75;;;;;;;22.35;95.65;101066.84;5025012;28;20108;-68
2023/08/19 05:21:00;;;;;;;21.23;14.35;;;;;;;22.35;95.32;101075.78;5023726;28;20036;-68
2023/08/19 05:23:26;;;;;;;18.20;13.57;;;;;;;22.35;95.60;101072.28;5027234;28;20091;-68
2023/08/19 05:25:52;;;;;;;17.98;13.52;;;;;;;22.37;95.56;101072.84;5015868;28;20524;-68
2023/08/19 05:28:17;;;;;;;15.73;12.70;;;;;;;22.38;95.33;101069.91;5027869;28;20026;-68
2023/08/19 05:30:42;;;;;;;15.15;12.90;;;;;;;22.40;95.07;101073.19;5023892;28;20029;-68
2023/08/19 05:33:07;;;;;;;16.98;13.35;;;;;;;22.41;94.86;101074.81;5015523;28;20056;-68
2023/08/19 05:35:33;;;;;;;16.50;13.27;;;;;;;22.42;94.81;101081.06;5010622;28;20029;-68
2023/08/19 05:37:58;;;;;;;14.93;13.05;;;;;;;22.42;95.05;101084.59;5018016;28;20025;-68
2023/08/19 05:40:23;;;;;;;16.02;13.52;;;;;;;22.43;94.92;101080.81;5014469;28;20155;-68
2023/08/19 05:42:49;;;;;;;17.00;12.98;;;;;;;22.44;94.83;101084.34;5012972;28;20021;-68
2023/08/19 05:45:15;;;;;;;16.77;12.77;;;;;;;22.42;95.14;101081.88;5020680;28;20090;-68
2023/08/19 05:47:40;;;;;;;16.88;13.20;;;;;;;22.41;95.17;101082.94;5013838;28;20102;-68
2023/08/19 05:50:06;;;;;;;14.80;12.57;;;;;;;22.40;95.02;101084.00;5009063;28;20602;-68
2023/08/19 05:52:32;;;;;;;15.65;12.32;;;;;;;22.41;95.14;101076.72;5010095;28;20108;-68
2023/08/19 05:54:57;;;;;;;16.10;12.93;;;;;;;22.41;95.23;101074.00;5011614;28;20111;-68
2023/08/19 05:57:23;;;;;;;18.92;12.48;;;;;;;22.45;95.13;101083.28;5017316;28;20025;-68
2023/08/19 05:59:48;;;;;;;17.55;12.73;;;;;;;22.45;95.19;101075.16;5008597;28;20105;-69
2023/08/19 06:02:14;;;;;;;15.10;12.45;;;;;;;22.48;95.05;101078.19;5016927;28;20106;-68
2023/08/19 06:04:39;;;;;;;15.40;12.13;;;;;;;22.45;94.67;101069.75;5009340;28;20052;-68
2023/08/19 06:07:04;;;;;;;17.02;11.95;;;;;;;22.52;94.44;101094.75;5016445;28;20092;-68
2023/08/19 06:09:30;;;;;;;15.48;11.40;;;;;;;22.54;94.25;101101.56;5012844;28;20498;-68
2023/08/19 06:11:55;;;;;;;16.40;12.00;;;;;;;22.56;94.21;101096.75;5015550;28;20028;-68
2023/08/19 06:14:20;;;;;;;14.25;12.35;;;;;;;22.63;94.32;101103.91;5021468;28;20029;-68
2023/08/19 06:16:46;;;;;;;13.38;11.57;;;;;;;22.66;93.87;101100.72;5027592;28;20031;-69
2023/08/19 06:19:11;;;;;;;15.90;12.35;;;;;;;22.69;93.84;101108.34;5025879;28;20023;-69
2023/08/19 06:21:37;;;;;;;14.05;11.50;;;;;;;22.72;93.67;101105.13;5024450;28;20068;-68
2023/08/19 06:24:03;;;;;;;14.90;12.18;;;;;;;22.74;93.65;101114.66;5025492;28;21685;-68
2023/08/19 06:26:28;;;;;;;19.08;12.23;;;;;;;22.79;93.25;101113.91;5023657;28;20025;-68
2023/08/19 06:28:53;;;;;;;14.98;11.80;;;;;;;22.80;93.66;101116.38;5022671;28;20018;-68
2023/08/19 06:31:19;;;;;;;13.02;11.65;;;;;;;22.86;93.62;101111.94;5024155;28;20390;-68
2023/08/19 06:33:45;;;;;;;16.52;11.75;;;;;;;22.87;93.48;101113.56;5028509;28;20061;-68
2023/08/19 06:36:13;;;;;;;13.15;11.20;;;;;;;22.93;92.93;101117.19;5023102;28;20025;-69
2023/08/19 06:38:42;;;;;;;17.03;12.10;;;;;;;22.97;93.06;101124.56;5023066;28;20029;-68
2023/08/19 06:41:09;;;;;;;13.27;10.38;;;;;;;23.02;92.95;101126.53;5011749;28;20029;-69
2023/08/19 06:43:36;;;;;;;17.83;10.73;;;;;;;23.02;93.04;101135.47;5009604;28;20061;-68
2023/08/19 06:46:02;;;;;;;20.02;11.35;;;;;;;23.07;92.54;101135.56;5018502;28;20109;-68
2023/08/19 06:48:28;;;;;;;16.85;10.68;;;;;;;23.13;91.84;101133.75;5010131;28;20507;-68
2023/08/19 06:50:54;;;;;;;15.20;10.20;;;;;;;23.18;92.04;101125.72;5013869;28;20061;-68
2023/08/19 06:53:21;;;;;;;13.05;10.30;;;;;;;23.24;91.59;101127.44;5015130;28;20108;-68
2023/08/19 06:56:21;;;;;;;14.10;9.90;;;;;;;23.31;91.18;101138.09;5014292;28;20030;-68
2023/08/19 06:58:54;;;;;;;13.15;10.00;;;;;;;23.34;90.93;101143.03;4999828;28;20030;-68
2023/08/19 07:01:26;;;;;;;13.93;10.10;;;;;;;23.36;90.70;101149.00;5012127;28;20044;-69
2023/08/19 07:03:52;;;;;;;14.85;10.48;;;;;;;23.39;90.54;101143.09;5018641;28;20060;-68
2023/08/19 07:06:20;;;;;;;14.85;10.30;;;;;;;23.41;90.01;101135.53;5011183;28;20123;-68
2023/08/19 07:08:46;;;;;;;16.35;10.23;;;;;;;23.47;90.24;101148.94;5018763;28;20026;-68
2023/08/19 07:11:11;;;;;;;11.95;9.50;;;;;;;23.50;89.81;101150.31;5012307;28;20017;-68
2023/08/19 07:13:37;;;;;;;14.68;9.57;;;;;;;23.58;89.75;101152.63;5016493;28;20040;-68
2023/08/19 07:16:04;;;;;;;14.07;9.70;;;;;;;23.62;89.71;101156.50;5013847;28;20026;-68
2023/08/19 07:18:36;;;;;;;12.70;9.27;;;;;;;23.69;89.52;101154.41;5018443;28;20033;-68
2023/08/19 07:21:04;;;;;;;14.05;9.38;;;;;;;23.76;88.89;101149.66;5013249;28;20745;-68
2023/08/19 07:23:30;;;;;;;13.90;9.00;;;;;;;23.84;88.53;101145.69;5019330;28;20056;-68
2023/08/19 07:25:56;;;;;;;13.30;8.80;;;;;;;23.90;88.23;101144.66;5025019;28;20502;-68
2023/08/19 07:28:23;;;;;;;13.80;8.75;;;;;;;23.97;88.30;101144.47;5014515;28;20018;-68
2023/08/19 07:30:48;;;;;;;16.58;9.25;;;;;;;24.04;87.62;101156.81;5022039;28;20025;-68
2023/08/19 07:33:14;;;;;;;14.40;9.30;;;;;;;24.21;87.37;101167.59;5025789;28;20029;-68
2023/08/19 07:35:39;;;;;;;13.35;8.90;;;;;;;24.29;87.30;101164.47;5016015;28;20030;-68
2023/08/19 07:38:05;;;;;;;11.77;8.75;;;;;;;24.38;86.47;101162.94;5015446;28;20041;-68
2023/08/19 07:40:30;;;;;;;13.38;8.50;;;;;;;24.47;85.83;101162.47;5014811;28;20515;-68
2023/08/19 07:42:56;;;;;;;14.38;8.73;;;;;;;24.55;85.59;101164.72;5012226;28;20030;-68
2023/08/19 07:45:21;;;;;;;12.35;8.40;;;;;;;24.65;85.28;101186.59;5017270;28;20025;-68
2023/08/19 07:47:46;;;;;;;15.52;8.32;;;;;;;24.73;85.28;101196.16;5013139;28;20052;-68
2023/08/19 07:50:12;;;;;;;12.00;8.20;;;;;;;24.78;84.41;101205.19;5021252;28;20049;-69
2023/08/19 07:52:37;;;;;;;11.00;8.10;;;;;;;24.87;84.18;101205.56;5015017;28;20476;-68
2023/08/19 07:55:03;;;;;;;14.48;8.02;;;;;;;24.90;83.92;101207.75;5017884;28;20682;-68
2023/08/19 07:57:28;;;;;;;12.52;8.70;;;;;;;24.95;83.39;101192.31;5023606;28;20037;-68
2023/08/19 07:59:53;;;;;;;13.35;8.45;;;;;;;25.04;83.43;101186.44;5017093;28;20018;-68
2023/08/19 08:02:18;;;;;;;13.73;8.50;;;;;;;25.09;83.89;101184.59;5024198;28;20036;-68
2023/08/19 08:04:44;;;;;;;16.08;8.45;;;;;;;25.12;83.17;101200.38;5021226;28;20383;-68
2023/08/19 08:07:09;;;;;;;12.15;8.55;;;;;;;25.11;82.71;101204.16;5022124;28;20084;-68
2023/08/19 08:09:34;;;;;;;15.90;8.70;;;;;;;25.12;82.81;101202.28;5018982;28;20041;-68
2023/08/19 08:12:00;;;;;;;12.52;8.25;;;;;;;25.09;82.31;101198.16;5021755;28;20048;-68
2023/08/19 08:14:25;;;;;;;15.73;9.15;;;;;;;25.08;82.34;101177.50;5020690;28;20021;-68
2023/08/19 08:16:51;;;;;;;11.18;9.00;;;;;;;25.10;82.80;101193.56;5018467;28;20402;-68
2023/08/19 08:19:16;;;;;;;17.33;8.60;;;;;;;25.10;82.20;101196.28;5018407;28;20037;-68
2023/08/19 08:21:41;;;;;;;13.15;8.63;;;;;;;25.10;82.38;101204.44;5028366;28;20712;-68
2023/08/19 08:24:07;;;;;;;14.07;9.00;;;;;;;25.07;82.85;101213.09;5030346;28;20013;-68
2023/08/19 08:26:32;;;;;;;11.80;9.23;;;;;;;25.07;82.77;101213.09;5025146;28;20507;-68
2023/08/19 08:28:57;;;;;;;13.45;8.98;;;;;;;25.04;82.79;101209.00;5018580;28;20498;-68
2023/08/19 08:31:23;;;;;;;15.25;9.48;;;;;;;25.04;83.06;101214.44;5028287;28;20096;-68
2023/08/19 08:33:48;;;;;;;11.60;8.65;;;;;;;25.02;83.43;101220.13;5016423;28;20030;-68
2023/08/19 08:36:14;;;;;;;16.52;9.27;;;;;;;25.00;83.65;101225.00;5020647;28;20446;-69
2023/08/19 08:38:39;;;;;;;12.23;8.13;;;;;;;25.00;83.42;101235.88;5020815;28;20025;-68
2023/08/19 08:41:06;;;;;;;12.65;8.27;;;;;;;24.96;83.70;101251.03;5023333;28;20395;-68
2023/08/19 08:43:33;;;;;;;11.65;8.80;;;;;;;24.96;83.73;101245.59;5021551;28;20088;-69
2023/08/19 08:46:02;;;;;;;13.38;9.00;;;;;;;24.93;84.57;101251.53;5027031;28;20489;-69
2023/08/19 08:48:29;;;;;;;13.40;8.85;;;;;;;24.94;84.39;101246.94;5028226;28;20029;-68
2023/08/19 08:50:55;;;;;;;12.93;9.43;;;;;;;24.92;84.54;101247.19;5021539;28;20032;-69
2023/08/19 08:53:21;;;;;;;13.25;8.93;;;;;;;24.90;84.38;101262.94;5020831;28;20418;-69
2023/08/19 08:55:47;;;;;;;18.00;9.25;;;;;;;24.88;84.85;101266.97;5023480;28;20021;-69
2023/08/19 08:58:12;;;;;;;11.90;8.50;;;;;;;24.87;85.15;101268.88;5023446;28;20024;-69
2023/08/19 09:00:38;;;;;;;14.18;9.45;;;;;;;24.88;85.51;101275.13;5024604;28;20025;-68
2023/08/19 09:03:06;;;;;;;14.48;9.68;;;;;;;24.89;85.03;101276.75;5021804;28;20029;-69
2023/08/19 09:05:35;;;;;;;17.48;9.75;;;;;;;24.90;85.40;101267.53;5022881;28;20022;-69
2023/08/19 09:08:03;;;;;;;11.82;9.30;;;;;;;24.89;85.31;101276.75;5024126;28;20079;-69
2023/08/19 09:10:33;;;;;;;15.63;9.40;;;;;;;24.91;85.64;101286.31;5019757;28;20042;-69
2023/08/19 09:12:59;;;;;;;13.30;9.70;;;;;;;24.91;85.13;101285.47;5021407;28;20033;-69
2023/08/19 09:15:28;;;;;;;17.73;10.15;;;;;;;24.96;85.58;101291.78;5028579;28;20025;-68
2023/08/19 09:17:55;;;;;;;13.40;9.60;;;;;;;25.06;86.19;101290.28;5029198;28;20485;-68
2023/08/19 09:20:21;;;;;;;13.38;9.57;;;;;;;25.12;85.58;101291.97;5019511;28;20522;-68
2023/08/19 09:22:49;;;;;;;16.80;10.65;;;;;;;25.26;85.40;101301.38;5030619;28;20608;-68
2023/08/19 09:25:14;;;;;;;14.98;10.73;;;;;;;25.43;85.74;101314.84;5035310;28;20033;-68
2023/08/19 09:27:40;;;;;;;16.70;10.57;;;;;;;25.54;85.42;101317.41;5027675;28;20086;-68
2023/08/19 09:30:06;;;;;;;14.88;10.48;;;;;;;25.57;84.62;101311.44;5024259;28;20061;-68
2023/08/19 09:32:33;;;;;;;16.52;11.27;;;;;;;25.59;83.43;101322.88;5028530;28;20052;-68
2023/08/19 09:35:07;;;;;;;17.38;11.55;;;;;;;25.57;83.82;101330.47;5023003;28;20022;-68
2023/08/19 09:37:35;;;;;;;16.30;11.95;;;;;;;25.58;84.33;101329.41;5034723;28;20115;-68
2023/08/19 09:40:07;;;;;;;17.10;12.13;;;;;;;25.63;83.80;101326.72;5027520;28;20021;-67
2023/08/19 09:42:33;;;;;;;16.25;11.93;;;;;;;25.73;84.57;101336.91;5024443;28;20065;-68
2023/08/19 09:44:58;;;;;;;18.75;11.13;;;;;;;25.91;85.08;101344.69;5026563;28;20068;-68
2023/08/19 09:47:23;;;;;;;16.80;12.13;;;;;;;26.00;83.54;101347.72;5015962;28;20026;-68
2023/08/19 09:49:52;;;;;;;17.02;12.00;;;;;;;26.11;83.46;101348.63;5017975;28;20431;-68
2023/08/19 09:52:18;;;;;;;18.05;11.98;;;;;;;26.20;83.11;101355.22;5023102;28;20024;-68
2023/08/19 09:54:53;;;;;;;17.58;11.77;;;;;;;26.25;82.46;101352.53;5030867;28;20033;-68
2023/08/19 09:57:33;;;;;;;18.77;12.38;;;;;;;26.35;82.14;101362.72;5021106;28;20026;-68
2023/08/19 09:59:59;;;;;;;21.38;12.45;;;;;;;26.53;82.63;101373.16;5023641;28;20375;-67
2023/08/19 10:02:24;;;;;;;19.38;13.27;;;;;;;26.74;82.60;101374.91;5022989;28;20033;-67
2023/08/19 10:04:50;;;;;;;18.77;13.40;;;;;;;26.76;80.55;101378.19;5027388;28;20025;-67
2023/08/19 10:07:18;;;;;;;18.85;13.40;;;;;;;26.69;80.79;101372.19;5027627;28;20044;-67
2023/08/19 10:09:43;;;;;;;;;;;;;;;26.72;80.29;101387.16;5023425;28;20025;-67
2023/08/19 10:12:11;;;;;;;20.97;14.07;;;;;;;26.48;79.75;101389.47;5018428;28;19920;-67
2023/08/19 10:14:40;;;;;;;17.92;13.15;;;;;;;26.33;79.90;101386.66;5027930;28;20629;-67
2023/08/19 10:17:06;;;;;;;16.33;12.77;;;;;;;26.24;80.47;101386.28;5023368;28;20027;-67
2023/08/19 10:19:39;;;;;;;20.33;13.43;;;;;;;26.27;80.60;101382.22;5021261;28;20022;-68
2023/08/19 10:22:07;;;;;;;15.55;12.43;;;;;;;26.29;80.73;101393.66;5020433;28;20523;-68
2023/08/19 10:24:34;;;;;;;19.25;13.07;;;;;;;26.32;80.99;101391.28;5019159;28;20511;-68
2023/08/19 10:26:59;;;;;;;18.70;14.10;;;;;;;26.36;80.67;101400.59;5019877;28;20079;-68
2023/08/19 10:29:24;;;;;;;18.60;12.93;;;;;;;26.43;80.34;101406.63;5024610;28;20034;-68
2023/08/19 10:31:50;;;;;;;18.67;12.63;;;;;;;26.53;79.90;101406.66;5022134;28;20430;-68
2023/08/19 10:34:18;;;;;;;14.90;10.60;;;;;;;26.62;79.21;101412.47;5022240;28;20021;-69
2023/08/19 10:36:43;;;;;;;10.10;7.40;;;;;;;26.59;76.86;101407.53;5025992;28;20037;-68
2023/08/19 10:39:16;;;;;;;11.27;8.38;;;;;;;26.58;75.70;101399.59;5026382;28;20497;-68
2023/08/19 10:41:41;;;;;;;10.93;8.48;;;;;;;26.65;75.73;101406.50;5023533;28;20027;-68
2023/08/19 10:44:10;;;;;;;12.02;8.93;;;;;;;26.57;74.57;101417.03;5013846;28;20040;-68
2023/08/19 10:47:07;;;;;;;14.35;10.15;;;;;;;26.43;74.64;101424.88;5023747;28;20629;-67
2023/08/19 10:49:36;;;;;;;13.52;10.93;;;;;;;26.30;75.65;101430.72;5017817;28;20042;-68
2023/08/19 10:52:06;;;;;;;15.13;10.02;;;;;;;26.19;76.38;101448.88;5018435;28;20048;-68
2023/08/19 10:54:39;;;;;;;11.93;10.10;;;;;;;26.04;76.90;101448.78;5019724;28;20028;-68
2023/08/19 10:57:22;;;;;;;11.40;8.73;;;;;;;25.87;76.59;101462.47;5014975;28;20033;-68
2023/08/19 10:59:54;;;;;;;11.32;7.72;;;;;;;25.61;76.17;101472.25;5018742;28;20032;-68
2023/08/19 11:02:19;;;;;;;14.55;8.00;;;;;;;25.40;76.74;101470.34;5019912;28;20128;-68
2023/08/19 11:04:49;;;;;;;10.55;7.93;;;;;;;25.29;77.34;101474.84;5022263;28;20184;-68
2023/08/19 11:07:14;;;;;;;8.98;7.38;;;;;;;25.15;77.35;101492.59;5015765;28;20040;-68
2023/08/19 11:09:48;;;;;;;12.35;7.82;;;;;;;25.05;77.00;101487.03;5015122;28;20029;-68